Time;durP1;ratioP1;P1;durP2;ratioP2;P2;SDS_P1;SDS_P2;PMS_P1;PMS_P2;Temp;Humidity;BMP_temperature;BMP_pressure;BME280_temperature;BME280_humidity;BME280_pressure;Samples;Min_cycle;Max_cycle;Signal;HPM_P1;HPM_P2
2022/01/10 09:47:24;;;;;;;36.17;32.83;;;1.40;88.20;;;;;;5069442;28;20761;-66
2022/01/10 09:49:49;;;;;;;41.58;37.33;;;1.30;90.00;;;;;;5069131;28;20107;-68
2022/01/10 09:52:16;;;;;;;33.75;30.80;;;1.40;90.70;;;;;;5069564;28;20100;-69
2022/01/10 09:54:42;;;;;;;34.83;31.67;;;1.70;91.00;;;;;;5069379;28;20420;-67
2022/01/10 09:57:08;;;;;;;39.78;35.55;;;2.10;91.00;;;;;;5068125;28;20093;-67
2022/01/10 09:59:33;;;;;;;38.03;34.20;;;2.40;90.80;;;;;;5069625;28;20435;-69
2022/01/10 10:01:59;;;;;;;34.22;29.55;;;2.50;90.40;;;;;;5069122;28;20070;-66
2022/01/10 10:04:25;;;;;;;36.22;32.38;;;2.60;90.20;;;;;;5069506;28;20028;-68
2022/01/10 10:06:52;;;;;;;46.60;39.47;;;2.70;90.00;;;;;;5069107;28;20489;-68
2022/01/10 10:09:18;;;;;;;65.78;48.25;;;2.80;90.00;;;;;;5067797;28;20451;-69
2022/01/10 10:11:50;;;;;;;39.90;34.28;;;3.00;89.70;;;;;;5067812;28;20021;-68
2022/01/10 10:14:22;;;;;;;31.48;28.05;;;3.10;89.50;;;;;;5067831;28;20025;-68
2022/01/10 10:16:50;;;;;;;36.85;32.95;;;3.20;88.90;;;;;;5069114;28;20071;-69
2022/01/10 10:19:19;;;;;;;38.75;34.35;;;3.20;88.40;;;;;;5068992;28;20013;-67
2022/01/10 10:21:45;;;;;;;36.70;32.85;;;3.30;88.10;;;;;;5067617;28;20013;-67
2022/01/10 10:24:11;;;;;;;41.08;36.67;;;3.40;88.20;;;;;;5069246;28;20039;-64
2022/01/10 10:26:36;;;;;;;57.63;43.28;;;3.50;88.20;;;;;;5070244;28;20444;-64
2022/01/10 10:29:03;;;;;;;33.53;28.73;;;3.50;87.60;;;;;;5068934;28;20029;-65
2022/01/10 10:31:30;;;;;;;33.00;29.73;;;3.60;87.80;;;;;;5069088;28;20032;-66
2022/01/10 10:33:57;;;;;;;31.65;28.60;;;3.70;87.70;;;;;;5068100;28;20056;-64
2022/01/10 10:36:25;;;;;;;30.83;28.23;;;3.80;87.10;;;;;;5068625;28;20028;-64
2022/01/10 10:38:52;;;;;;;27.98;25.20;;;3.70;85.90;;;;;;5069995;28;20028;-68
2022/01/10 10:41:18;;;;;;;24.05;22.15;;;3.50;85.70;;;;;;5068293;28;20020;-65
2022/01/10 10:43:44;;;;;;;28.63;26.30;;;3.40;85.30;;;;;;5066696;28;20503;-68
2022/01/10 10:46:17;;;;;;;30.30;27.52;;;3.40;86.00;;;;;;5056536;28;20045;-66
2022/01/10 10:48:52;;;;;;;24.05;21.98;;;3.40;86.20;;;;;;5057037;28;20021;-67
2022/01/10 10:51:17;;;;;;;28.02;25.40;;;3.50;86.00;;;;;;5056567;28;20448;-67
2022/01/10 10:53:43;;;;;;;26.75;24.20;;;3.40;85.80;;;;;;5056696;28;20028;-67
2022/01/10 10:56:09;;;;;;;25.90;23.30;;;3.30;85.90;;;;;;5056479;28;20079;-62
2022/01/10 10:58:35;;;;;;;28.50;25.90;;;3.40;86.20;;;;;;5044929;28;20018;-66
2022/01/10 11:01:04;;;;;;;27.30;24.83;;;3.50;86.30;;;;;;5042639;28;20788;-69
2022/01/10 11:03:30;;;;;;;29.60;26.88;;;3.60;86.00;;;;;;5042548;28;20126;-68
2022/01/10 11:06:02;;;;;;;28.98;26.52;;;3.80;85.90;;;;;;5045227;28;20387;-65
2022/01/10 11:08:31;;;;;;;31.50;27.58;;;3.80;85.70;;;;;;5049349;28;20021;-65
2022/01/10 11:11:01;;;;;;;30.25;27.80;;;3.70;84.90;;;;;;5056197;28;20017;-65
2022/01/10 11:13:29;;;;;;;28.67;26.35;;;3.70;85.30;;;;;;5055475;28;20039;-60
2022/01/10 11:15:58;;;;;;;29.77;27.05;;;3.70;85.30;;;;;;5056182;28;20032;-68
2022/01/10 11:18:24;;;;;;;32.97;29.92;;;3.80;85.60;;;;;;5054747;28;20363;-68
2022/01/10 11:20:55;;;;;;;30.30;27.52;;;3.90;85.20;;;;;;5054689;28;20032;-67
2022/01/10 11:23:21;;;;;;;32.80;29.63;;;3.80;84.10;;;;;;5054841;28;20028;-67
2022/01/10 11:25:47;;;;;;;27.40;24.85;;;3.80;83.90;;;;;;5054579;28;20035;-66
2022/01/10 11:28:24;;;;;;;30.77;27.85;;;3.70;84.00;;;;;;5055920;28;20104;-65
2022/01/10 11:30:59;;;;;;;34.63;30.92;;;3.70;84.40;;;;;;5051320;28;20053;-68
2022/01/10 11:33:26;;;;;;;34.85;31.63;;;3.70;84.00;;;;;;5043972;28;20021;-67
2022/01/10 11:36:04;;;;;;;36.50;32.55;;;3.60;83.50;;;;;;5044143;28;20464;-69
2022/01/10 11:38:37;;;;;;;33.08;29.63;;;3.60;83.80;;;;;;5047845;28;20031;-69
2022/01/10 11:41:10;;;;;;;31.33;28.35;;;3.70;84.40;;;;;;5054140;28;20033;-67
2022/01/10 11:44:08;;;;;;;29.33;26.45;;;3.70;84.10;;;;;;5054325;28;20078;-67
2022/01/10 11:46:41;;;;;;;30.45;27.83;;;3.70;83.70;;;;;;5052657;28;20053;-66
2022/01/10 11:49:10;;;;;;;29.25;26.48;;;3.80;83.70;;;;;;5055465;28;20021;-67
2022/01/10 11:51:37;;;;;;;27.33;24.80;;;3.90;83.60;;;;;;5054186;28;20021;-66
2022/01/10 11:54:35;;;;;;;33.53;30.20;;;4.00;83.40;;;;;;5054054;28;20025;-66
2022/01/10 11:57:02;;;;;;;26.30;24.15;;;3.90;83.00;;;;;;5042784;28;20082;-66
2022/01/10 11:59:46;;;;;;;31.10;27.92;;;4.00;83.20;;;;;;5042476;28;20037;-66
2022/01/10 12:02:18;;;;;;;26.63;24.13;;;4.00;82.50;;;;;;5042943;28;20064;-66
2022/01/10 12:04:52;;;;;;;28.58;25.58;;;4.00;82.70;;;;;;5043386;28;20392;-66
2022/01/10 12:07:22;;;;;;;26.75;24.23;;;3.90;81.70;;;;;;5043354;28;20036;-65
2022/01/10 12:09:48;;;;;;;28.83;26.05;;;3.80;81.40;;;;;;5042323;28;20071;-66
2022/01/10 12:12:17;;;;;;;28.45;25.73;;;3.80;81.90;;;;;;5041349;28;20364;-67
2022/01/10 12:14:43;;;;;;;24.25;22.10;;;3.80;81.50;;;;;;5043296;28;20398;-66
2022/01/10 12:17:10;;;;;;;22.88;21.00;;;3.60;80.80;;;;;;5042241;28;20025;-66
2022/01/10 12:19:37;;;;;;;34.35;31.00;;;3.50;81.10;;;;;;5042582;28;20051;-68
2022/01/10 12:22:07;;;;;;;30.77;27.77;;;3.60;81.90;;;;;;5043199;28;20025;-69
2022/01/10 12:24:35;;;;;;;29.00;26.25;;;3.70;81.80;;;;;;5042597;28;20021;-69
2022/01/10 12:27:02;;;;;;;24.52;22.60;;;3.80;81.90;;;;;;5040680;28;20028;-68
2022/01/10 12:29:29;;;;;;;29.20;27.00;;;3.80;81.50;;;;;;5042068;28;20021;-67
2022/01/10 12:31:55;;;;;;;25.60;23.42;;;3.80;81.40;;;;;;5042894;28;20017;-67
2022/01/10 12:34:21;;;;;;;29.13;26.95;;;3.80;81.20;;;;;;5041059;28;20080;-67
2022/01/10 12:36:47;;;;;;;28.05;25.88;;;3.90;81.50;;;;;;5042280;28;20399;-67
2022/01/10 12:39:26;;;;;;;29.60;27.27;;;3.90;80.80;;;;;;5042169;28;20420;-70
2022/01/10 12:41:56;;;;;;;27.52;25.17;;;3.80;80.50;;;;;;5041983;28;20021;-67
2022/01/10 12:44:22;;;;;;;27.55;24.83;;;3.90;80.80;;;;;;5040370;28;20388;-67
2022/01/10 12:46:47;;;;;;;28.33;25.75;;;3.90;80.70;;;;;;5041647;28;20053;-68
2022/01/10 12:49:15;;;;;;;27.40;24.95;;;3.90;80.60;;;;;;5043533;28;20128;-68
2022/01/10 12:51:43;;;;;;;28.90;26.45;;;3.70;79.70;;;;;;5040606;28;20017;-69
2022/01/10 12:54:15;;;;;;;27.58;25.17;;;3.60;79.70;;;;;;5041723;28;20481;-68
2022/01/10 12:56:41;;;;;;;30.08;27.80;;;3.60;79.80;;;;;;5043455;28;20033;-68
2022/01/10 12:59:10;;;;;;;26.50;24.13;;;3.60;79.30;;;;;;5041875;28;20024;-69
2022/01/10 13:01:36;;;;;;;30.83;27.70;;;3.60;79.80;;;;;;5039309;28;20021;-68
2022/01/10 13:04:02;;;;;;;30.75;28.00;;;3.60;79.90;;;;;;5043144;28;20067;-68
2022/01/10 13:06:37;;;;;;;32.20;29.15;;;3.60;79.80;;;;;;5039921;28;20464;-68
2022/01/10 13:09:05;;;;;;;28.15;25.48;;;3.70;79.90;;;;;;5041900;28;20127;-68
2022/01/10 13:11:42;;;;;;;33.55;30.23;;;3.60;79.10;;;;;;5041977;28;20053;-68
2022/01/10 13:14:13;;;;;;;30.95;28.30;;;3.60;79.20;;;;;;5040851;28;20020;-68
2022/01/10 13:16:39;;;;;;;30.67;27.70;;;3.60;79.40;;;;;;5042276;28;20017;-68
2022/01/10 13:19:11;;;;;;;30.58;27.75;;;3.60;79.10;;;;;;5041920;28;20021;-68
2022/01/10 13:21:52;;;;;;;33.17;29.90;;;3.50;78.90;;;;;;5038892;28;20024;-68
2022/01/10 13:24:20;;;;;;;46.50;40.40;;;3.50;79.20;;;;;;5034416;28;20026;-69
2022/01/10 13:27:04;;;;;;;45.15;35.42;;;3.50;79.20;;;;;;5034411;28;20068;-70
2022/01/10 13:29:40;;;;;;;32.13;29.10;;;3.50;79.40;;;;;;5035821;28;20510;-68
2022/01/10 13:32:18;;;;;;;38.25;33.55;;;3.50;79.20;;;;;;5034594;28;20052;-69
2022/01/10 13:35:04;;;;;;;39.90;34.63;;;3.50;79.30;;;;;;5045255;28;20029;-69
2022/01/10 13:37:43;;;;;;;47.88;42.50;;;3.60;79.30;;;;;;5046027;28;20025;-68
2022/01/10 13:40:18;;;;;;;33.90;30.58;;;3.40;79.10;;;;;;5040195;28;20031;-67
2022/01/10 13:42:43;;;;;;;30.23;27.52;;;3.40;79.40;;;;;;5052797;28;20467;-67
2022/01/10 13:45:14;;;;;;;35.30;31.23;;;3.40;79.10;;;;;;5051579;28;20025;-66
2022/01/10 13:48:06;;;;;;;32.95;29.73;;;3.40;78.80;;;;;;5052689;28;20017;-67
2022/01/10 13:50:33;;;;;;;34.22;30.60;;;3.20;78.60;;;;;;5052978;28;20036;-67
2022/01/10 13:53:06;;;;;;;34.22;30.80;;;3.10;78.30;;;;;;5052163;28;20024;-67
2022/01/10 13:55:34;;;;;;;30.98;28.33;;;3.10;78.90;;;;;;5052171;28;20033;-68
2022/01/10 13:58:00;;;;;;;31.48;28.48;;;3.10;78.70;;;;;;5044399;28;20060;-68
2022/01/10 14:00:26;;;;;;;30.63;26.67;;;3.00;78.30;;;;;;5040888;28;20432;-67
2022/01/10 14:02:54;;;;;;;32.42;29.38;;;3.00;78.30;;;;;;5050015;28;20048;-67
2022/01/10 14:05:25;;;;;;;30.10;27.35;;;2.90;78.40;;;;;;5052093;28;20025;-67
2022/01/10 14:07:52;;;;;;;30.98;28.30;;;2.90;78.30;;;;;;5042501;28;20021;-68
2022/01/10 14:10:18;;;;;;;31.02;27.90;;;2.80;78.60;;;;;;5040687;28;20025;-67
2022/01/10 14:12:44;;;;;;;29.08;26.48;;;2.90;78.90;;;;;;5041304;28;20014;-68
2022/01/10 14:15:10;;;;;;;27.02;24.55;;;2.80;78.10;;;;;;5041087;28;20440;-68
2022/01/10 14:17:36;;;;;;;28.83;26.15;;;2.70;78.00;;;;;;5051952;28;20033;-68
2022/01/10 14:20:04;;;;;;;30.67;28.13;;;2.70;78.20;;;;;;5046601;28;20064;-68
2022/01/10 14:22:31;;;;;;;30.60;27.75;;;2.70;78.20;;;;;;5040532;28;20041;-68
2022/01/10 14:24:56;;;;;;;37.65;33.60;;;2.70;78.40;;;;;;5040634;28;20023;-68
2022/01/10 14:27:22;;;;;;;36.25;33.53;;;2.70;78.10;;;;;;5045281;28;20032;-68
2022/01/10 14:29:48;;;;;;;35.15;31.42;;;2.60;77.80;;;;;;5046949;28;20021;-67
2022/01/10 14:32:13;;;;;;;30.27;27.55;;;2.50;77.80;;;;;;5038978;28;20022;-68
2022/01/10 14:34:39;;;;;;;30.33;27.35;;;2.40;78.00;;;;;;5042571;28;20108;-67
2022/01/10 14:37:05;;;;;;;34.03;30.70;;;2.50;78.30;;;;;;5044287;28;20160;-70
2022/01/10 14:39:31;;;;;;;43.45;39.08;;;2.60;78.60;;;;;;5041546;28;20063;-69
2022/01/10 14:41:57;;;;;;;34.88;31.70;;;2.70;78.70;;;;;;5042602;28;20014;-68
2022/01/10 14:44:23;;;;;;;32.83;29.90;;;2.90;78.80;;;;;;5042423;28;20074;-67
2022/01/10 14:46:49;;;;;;;30.20;27.50;;;2.90;78.10;;;;;;5041602;28;20083;-67
2022/01/10 14:49:14;;;;;;;34.70;31.65;;;2.80;78.10;;;;;;5044428;28;20040;-67
2022/01/10 14:51:40;;;;;;;32.17;29.25;;;2.80;78.10;;;;;;5045730;28;20017;-67
2022/01/10 14:54:06;;;;;;;25.83;23.55;;;2.90;78.10;;;;;;5044014;28;20083;-68
2022/01/10 14:56:33;;;;;;;32.47;29.15;;;2.90;78.20;;;;;;5044263;28;20340;-67
2022/01/10 14:58:59;;;;;;;32.92;30.05;;;2.90;77.80;;;;;;5045293;28;20103;-69
2022/01/10 15:01:27;;;;;;;39.35;35.33;;;2.90;77.80;;;;;;5045680;28;20096;-70
2022/01/10 15:03:53;;;;;;;33.15;29.73;;;2.90;77.70;;;;;;5042455;28;20704;-69
2022/01/10 15:06:19;;;;;;;39.47;35.30;;;2.80;77.60;;;;;;5044948;28;20028;-67
2022/01/10 15:08:45;;;;;;;41.58;36.15;;;2.90;77.90;;;;;;5041638;28;20033;-67
2022/01/10 15:11:12;;;;;;;34.15;31.15;;;2.90;77.80;;;;;;5034600;28;20113;-66
2022/01/10 15:13:41;;;;;;;32.15;29.10;;;2.80;77.30;;;;;;5035709;28;20036;-67
2022/01/10 15:16:07;;;;;;;41.63;37.00;;;2.70;77.50;;;;;;5034038;28;20037;-67
2022/01/10 15:18:33;;;;;;;62.22;44.72;;;2.70;77.70;;;;;;5035318;28;20032;-68
2022/01/10 15:20:59;;;;;;;29.52;26.85;;;2.70;77.50;;;;;;5039182;28;20017;-67
2022/01/10 15:23:25;;;;;;;43.20;35.35;;;2.50;77.30;;;;;;5044062;28;20025;-68
2022/01/10 15:25:50;;;;;;;41.83;35.35;;;2.40;77.30;;;;;;5042735;28;20447;-67
2022/01/10 15:28:16;;;;;;;110.60;66.70;;;2.30;77.60;;;;;;5042772;28;20083;-66
2022/01/10 15:30:42;;;;;;;54.95;43.58;;;2.20;77.50;;;;;;5045188;28;20071;-68
2022/01/10 15:33:08;;;;;;;28.33;25.90;;;2.20;77.70;;;;;;5044675;28;20021;-67
2022/01/10 15:35:33;;;;;;;41.13;37.03;;;2.10;77.50;;;;;;5043310;28;20027;-68
2022/01/10 15:37:59;;;;;;;32.60;29.98;;;2.00;77.50;;;;;;5044752;28;20014;-68
2022/01/10 15:40:25;;;;;;;41.20;37.45;;;1.90;77.40;;;;;;5041715;28;20033;-68
2022/01/10 15:42:51;;;;;;;39.28;35.40;;;1.90;77.70;;;;;;5044518;28;20044;-69
2022/01/10 15:45:17;;;;;;;44.38;39.13;;;1.70;77.30;;;;;;5043637;28;20049;-67
2022/01/10 15:47:45;;;;;;;40.42;36.05;;;1.50;77.40;;;;;;5041605;28;20107;-67
2022/01/10 15:50:11;;;;;;;45.67;40.53;;;1.50;77.90;;;;;;5043781;28;20114;-67
2022/01/10 15:52:37;;;;;;;31.33;28.77;;;1.40;78.00;;;;;;5042905;28;20459;-67
2022/01/10 15:55:04;;;;;;;68.43;55.05;;;1.40;78.40;;;;;;5041627;28;20045;-69
2022/01/10 15:57:30;;;;;;;34.08;31.02;;;1.50;78.30;;;;;;5040032;28;20029;-68
2022/01/10 15:59:56;;;;;;;28.90;26.20;;;1.50;78.30;;;;;;5044039;28;20016;-69
2022/01/10 16:02:21;;;;;;;30.17;27.80;;;1.50;78.60;;;;;;5040787;28;20411;-68
2022/01/10 16:04:47;;;;;;;35.22;31.63;;;1.60;78.40;;;;;;5047890;28;20021;-69
2022/01/10 16:07:13;;;;;;;36.53;32.88;;;1.60;78.00;;;;;;5048700;28;20036;-68
2022/01/10 16:09:39;;;;;;;34.55;31.65;;;1.50;77.90;;;;;;5047198;28;20088;-68
2022/01/10 16:12:05;;;;;;;30.65;28.15;;;1.40;77.50;;;;;;5042650;28;20376;-66
2022/01/10 16:14:31;;;;;;;31.83;29.00;;;1.30;77.60;;;;;;5044322;28;20108;-67
2022/01/10 16:16:58;;;;;;;32.55;29.77;;;1.20;77.80;;;;;;5049858;28;20024;-71
2022/01/10 16:19:25;;;;;;;31.30;28.50;;;1.30;78.40;;;;;;5055231;28;20020;-70
2022/01/10 16:21:50;;;;;;;32.38;29.23;;;1.30;78.20;;;;;;5053807;28;20063;-68
2022/01/10 16:24:16;;;;;;;32.45;29.85;;;1.20;78.10;;;;;;5054107;28;20374;-69
2022/01/10 16:26:43;;;;;;;36.47;32.95;;;1.20;78.40;;;;;;5032890;28;20545;-67
2022/01/10 16:29:09;;;;;;;31.63;28.63;;;1.30;78.30;;;;;;5034769;28;20060;-69
2022/01/10 16:31:36;;;;;;;30.75;27.60;;;1.30;78.00;;;;;;5041228;28;20021;-69
2022/01/10 16:34:02;;;;;;;30.13;26.85;;;1.30;77.70;;;;;;5036473;28;20023;-68
2022/01/10 16:36:28;;;;;;;30.63;27.80;;;1.40;77.90;;;;;;5041097;28;20020;-68
2022/01/10 16:38:54;;;;;;;27.58;25.80;;;1.40;77.80;;;;;;5041049;28;20027;-67
2022/01/10 16:41:20;;;;;;;30.90;28.10;;;1.40;77.90;;;;;;5042540;28;20100;-69
2022/01/10 16:43:46;;;;;;;28.42;25.98;;;1.50;78.00;;;;;;5043309;28;20068;-66
2022/01/10 16:46:13;;;;;;;33.60;30.67;;;1.50;77.70;;;;;;5042474;28;20041;-68
2022/01/10 16:48:39;;;;;;;34.92;31.60;;;1.60;78.00;;;;;;5046870;28;20099;-70
2022/01/10 16:51:10;;;;;;;43.65;38.50;;;1.60;77.80;;;;;;5042171;28;20025;-68
2022/01/10 16:53:36;;;;;;;30.48;27.67;;;1.50;77.00;;;;;;5046296;28;20043;-69
2022/01/10 16:56:02;;;;;;;38.92;34.50;;;1.50;77.30;;;;;;5037412;28;20025;-67
2022/01/10 16:58:28;;;;;;;31.83;29.35;;;1.50;77.50;;;;;;5037563;28;20021;-70
2022/01/10 17:00:55;;;;;;;32.28;29.15;;;1.60;77.50;;;;;;5032552;28;20033;-68
2022/01/10 17:03:21;;;;;;;30.23;27.05;;;1.60;77.60;;;;;;5034180;28;20021;-68
2022/01/10 17:05:49;;;;;;;34.85;31.60;;;1.70;77.70;;;;;;5045481;28;20111;-69
2022/01/10 17:08:19;;;;;;;32.90;29.73;;;1.80;77.70;;;;;;5033154;28;20022;-68
2022/01/10 17:10:55;;;;;;;36.50;32.20;;;1.80;77.70;;;;;;5033483;28;20534;-69
2022/01/10 17:13:22;;;;;;;31.65;28.70;;;1.80;77.60;;;;;;5034462;28;20033;-70
2022/01/10 17:15:49;;;;;;;31.90;29.30;;;1.90;77.60;;;;;;5033077;28;20021;-71
2022/01/10 17:18:16;;;;;;;33.13;30.13;;;2.00;77.50;;;;;;5038399;28;20040;-67
2022/01/10 17:20:41;;;;;;;33.53;30.38;;;2.00;77.50;;;;;;5037969;28;20024;-69
2022/01/10 17:23:07;;;;;;;39.63;35.50;;;2.10;77.50;;;;;;5043922;28;20013;-68
2022/01/10 17:25:33;;;;;;;30.48;27.92;;;2.10;77.20;;;;;;5037984;28;20041;-69
2022/01/10 17:28:02;;;;;;;31.17;28.65;;;2.00;77.10;;;;;;5040368;28;20451;-69
2022/01/10 17:30:28;;;;;;;30.10;27.52;;;1.90;76.80;;;;;;5039438;28;20016;-67
2022/01/10 17:32:54;;;;;;;33.13;30.15;;;1.80;76.90;;;;;;5040462;28;20025;-70
2022/01/10 17:35:19;;;;;;;28.08;25.75;;;1.80;76.90;;;;;;5041259;28;20017;-67
2022/01/10 17:37:46;;;;;;;31.70;29.00;;;1.80;76.90;;;;;;5042359;28;20040;-69
2022/01/10 17:40:12;;;;;;;43.92;36.70;;;1.70;76.90;;;;;;5038774;28;20045;-70
2022/01/10 17:42:41;;;;;;;29.65;27.27;;;1.60;76.30;;;;;;5039331;28;20013;-72
2022/01/10 17:45:10;;;;;;;30.05;27.17;;;1.50;76.50;;;;;;5039296;28;20021;-69
2022/01/10 17:47:36;;;;;;;29.48;27.08;;;1.50;76.60;;;;;;5037200;28;20037;-69
2022/01/10 17:50:05;;;;;;;35.90;30.30;;;1.40;76.70;;;;;;5044075;28;20013;-66
2022/01/10 17:52:36;;;;;;;35.60;32.60;;;1.50;76.90;;;;;;5041775;28;20013;-67
2022/01/10 17:55:04;;;;;;;60.92;45.95;;;1.50;76.80;;;;;;5039882;28;20121;-66
2022/01/10 17:57:29;;;;;;;124.28;79.63;;;1.50;76.70;;;;;;5040825;28;20071;-67
2022/01/10 17:59:57;;;;;;;37.53;33.90;;;1.40;76.40;;;;;;5042183;28;20415;-68
2022/01/10 18:02:23;;;;;;;42.30;38.05;;;1.30;76.80;;;;;;5041725;28;20048;-69
2022/01/10 18:04:49;;;;;;;30.83;28.17;;;1.40;77.10;;;;;;5036353;28;20116;-69
2022/01/10 18:07:15;;;;;;;30.92;27.50;;;1.40;77.10;;;;;;5045065;28;20108;-68
2022/01/10 18:09:40;;;;;;;33.05;29.45;;;1.40;77.20;;;;;;5037969;28;20383;-68
2022/01/10 18:12:06;;;;;;;31.13;28.90;;;1.50;77.30;;;;;;5036952;28;20456;-66
2022/01/10 18:14:32;;;;;;;31.88;29.15;;;1.60;76.90;;;;;;5035298;28;20545;-67
2022/01/10 18:17:00;;;;;;;30.50;28.23;;;1.60;76.90;;;;;;5036519;28;20104;-68
2022/01/10 18:19:27;;;;;;;27.85;25.55;;;1.60;76.80;;;;;;5048717;28;20082;-69
2022/01/10 18:21:54;;;;;;;28.05;25.10;;;1.60;76.70;;;;;;5044334;28;20026;-68
2022/01/10 18:24:19;;;;;;;31.75;28.40;;;1.70;76.80;;;;;;5042657;28;20025;-68
2022/01/10 18:26:46;;;;;;;46.75;35.60;;;1.70;76.70;;;;;;5044497;28;20036;-67
2022/01/10 18:29:13;;;;;;;29.67;27.10;;;1.70;76.80;;;;;;5043456;28;20028;-68
2022/01/10 18:31:40;;;;;;;29.83;27.08;;;1.70;76.70;;;;;;5042425;28;20017;-67
2022/01/10 18:34:06;;;;;;;30.92;27.83;;;1.70;76.60;;;;;;5042437;28;20048;-66
2022/01/10 18:36:35;;;;;;;29.13;26.23;;;1.70;76.60;;;;;;5044411;28;20024;-71
2022/01/10 18:39:01;;;;;;;28.98;26.25;;;1.80;76.50;;;;;;5044678;28;20071;-65
2022/01/10 18:41:27;;;;;;;30.70;28.05;;;1.70;76.10;;;;;;5044080;28;20027;-66
2022/01/10 18:43:53;;;;;;;41.20;30.77;;;1.60;75.90;;;;;;5043054;28;20025;-69
2022/01/10 18:46:20;;;;;;;27.88;26.02;;;1.60;76.10;;;;;;5042051;28;20059;-66
2022/01/10 18:48:46;;;;;;;29.20;26.83;;;1.50;76.10;;;;;;5041755;28;20030;-68
2022/01/10 18:51:13;;;;;;;26.88;24.38;;;1.50;76.20;;;;;;5043627;28;20071;-66
2022/01/10 18:53:40;;;;;;;28.55;26.58;;;1.50;76.20;;;;;;5043775;28;20021;-66
2022/01/10 18:56:06;;;;;;;28.27;26.33;;;1.50;75.80;;;;;;5041120;28;20091;-67
2022/01/10 18:58:32;;;;;;;44.83;40.60;;;1.30;75.60;;;;;;5045060;28;20018;-66
2022/01/10 19:00:57;;;;;;;28.08;25.95;;;1.30;75.80;;;;;;5040109;28;20025;-65
2022/01/10 19:03:24;;;;;;;48.78;39.15;;;1.20;75.60;;;;;;5043435;28;20631;-69
2022/01/10 19:05:50;;;;;;;29.23;27.05;;;1.10;75.30;;;;;;5042011;28;20029;-68
2022/01/10 19:08:16;;;;;;;27.80;25.63;;;1.00;75.20;;;;;;5044656;28;20533;-69
2022/01/10 19:10:42;;;;;;;26.23;24.20;;;1.00;75.50;;;;;;5041945;28;20025;-69
2022/01/10 19:13:08;;;;;;;33.92;31.27;;;1.00;75.80;;;;;;5043523;28;20447;-67
2022/01/10 19:15:34;;;;;;;30.42;28.10;;;1.00;75.80;;;;;;5042631;28;20091;-65
2022/01/10 19:17:59;;;;;;;31.27;28.48;;;0.90;75.40;;;;;;5042894;28;20075;-65
2022/01/10 19:20:25;;;;;;;27.40;25.65;;;0.90;75.40;;;;;;5045074;28;20032;-67
2022/01/10 19:22:52;;;;;;;39.55;36.47;;;0.90;75.50;;;;;;5042472;28;20017;-66
2022/01/10 19:25:18;;;;;;;34.22;31.25;;;0.80;75.30;;;;;;5043009;28;20051;-68
2022/01/10 19:27:45;;;;;;;25.27;23.40;;;0.70;75.10;;;;;;5043454;28;20017;-67
2022/01/10 19:30:11;;;;;;;24.95;23.20;;;0.60;75.40;;;;;;5043304;28;20014;-66
2022/01/10 19:32:37;;;;;;;27.08;25.30;;;0.60;75.70;;;;;;5041554;28;20029;-67
2022/01/10 19:35:08;;;;;;;24.50;22.55;;;0.60;75.60;;;;;;5041189;28;20029;-63
2022/01/10 19:37:35;;;;;;;23.92;22.33;;;0.60;75.50;;;;;;5042311;28;20071;-65
2022/01/10 19:40:01;;;;;;;28.75;26.88;;;0.60;75.30;;;;;;5043935;28;20389;-68
2022/01/10 19:42:27;;;;;;;22.70;21.13;;;0.50;75.20;;;;;;5048122;28;20033;-66
2022/01/10 19:44:52;;;;;;;26.13;24.02;;;0.50;75.30;;;;;;5047679;28;20019;-65
2022/01/10 19:47:18;;;;;;;32.40;29.75;;;0.50;75.60;;;;;;5044369;28;20068;-69
2022/01/10 19:49:44;;;;;;;23.98;22.17;;;0.50;75.60;;;;;;5041611;28;20459;-67
2022/01/10 19:52:09;;;;;;;27.85;25.77;;;0.50;75.30;;;;;;5042035;28;20456;-68
2022/01/10 19:54:35;;;;;;;27.95;25.92;;;0.50;75.60;;;;;;5044627;28;20021;-66
2022/01/10 19:57:02;;;;;;;21.42;20.13;;;0.60;75.60;;;;;;5043258;28;20117;-69
2022/01/10 19:59:29;;;;;;;22.80;21.20;;;0.50;75.30;;;;;;5042517;28;20075;-69
2022/01/10 20:01:55;;;;;;;25.52;23.70;;;0.50;75.00;;;;;;5042966;28;20013;-63
2022/01/10 20:04:21;;;;;;;26.10;23.80;;;0.50;75.10;;;;;;5041637;28;20071;-65
2022/01/10 20:06:47;;;;;;;23.02;20.95;;;0.50;75.10;;;;;;5040389;28;21083;-64
2022/01/10 20:09:12;;;;;;;24.73;23.00;;;0.50;75.00;;;;;;5042845;28;20417;-66
2022/01/10 20:11:42;;;;;;;24.10;22.60;;;0.50;74.80;;;;;;5041908;28;20411;-67
2022/01/10 20:14:34;;;;;;;29.30;26.63;;;0.40;74.50;;;;;;5094593;27;1425522;-69
2022/01/10 20:17:00;;;;;;;30.45;28.40;;;0.40;74.70;;;;;;5115566;28;20027;-66
2022/01/10 20:19:25;;;;;;;26.00;24.20;;;0.30;75.20;;;;;;5116690;28;20139;-67
2022/01/10 20:21:51;;;;;;;24.80;22.90;;;0.40;75.10;;;;;;5117338;28;20077;-72
2022/01/10 20:24:16;;;;;;;25.17;23.38;;;0.40;75.10;;;;;;5118798;28;20028;-70
2022/01/10 20:26:42;;;;;;;26.55;24.60;;;0.40;75.00;;;;;;5118004;28;20447;-66
2022/01/10 20:29:08;;;;;;;22.92;21.27;;;0.40;75.00;;;;;;5119290;28;20023;-67
2022/01/10 20:31:35;;;;;;;26.58;25.08;;;0.40;74.80;;;;;;5117990;27;20123;-68
2022/01/10 20:34:00;;;;;;;22.77;20.77;;;0.40;74.90;;;;;;5118138;28;20034;-70
2022/01/10 20:36:26;;;;;;;26.48;25.13;;;0.40;74.90;;;;;;5121064;28;20106;-68
2022/01/10 20:38:52;;;;;;;26.55;24.42;;;0.40;74.90;;;;;;5119826;28;20019;-68
2022/01/10 20:41:18;;;;;;;48.25;38.58;;;0.40;74.30;;;;;;5118835;28;20047;-67
2022/01/10 20:43:44;;;;;;;25.27;23.23;;;0.20;73.90;;;;;;5115580;28;20449;-67
2022/01/10 20:46:10;;;;;;;46.50;40.88;;;0.10;74.20;;;;;;5098879;28;20111;-67
2022/01/10 20:48:36;;;;;;;29.02;27.08;;;0.10;74.00;;;;;;5098201;28;20531;-67
2022/01/10 20:51:03;;;;;;;25.77;23.55;;;-0.10;74.20;;;;;;5104334;28;20020;-68
2022/01/10 20:53:29;;;;;;;27.23;25.42;;;0.00;74.50;;;;;;5098023;28;20032;-67
2022/01/10 20:55:56;;;;;;;25.58;24.15;;;0.00;74.70;;;;;;5086804;28;20462;-66
2022/01/10 20:58:22;;;;;;;26.70;24.90;;;0.00;74.70;;;;;;5092678;28;20050;-67
2022/01/10 21:00:49;;;;;;;27.15;25.45;;;0.10;74.80;;;;;;5090369;28;20023;-67
2022/01/10 21:03:15;;;;;;;24.73;22.80;;;0.20;74.80;;;;;;5097880;28;20028;-67
2022/01/10 21:05:41;;;;;;;24.88;23.08;;;0.20;74.80;;;;;;5099772;28;20085;-67
2022/01/10 21:08:09;;;;;;;24.55;23.00;;;0.20;74.70;;;;;;5096551;28;20474;-66
2022/01/10 21:10:36;;;;;;;24.90;23.15;;;0.20;74.70;;;;;;5097758;28;20048;-67
2022/01/10 21:13:04;;;;;;;22.48;20.98;;;0.20;74.40;;;;;;5100636;28;20056;-67
2022/01/10 21:15:31;;;;;;;23.67;22.15;;;0.10;74.30;;;;;;5092423;28;20429;-66
2022/01/10 21:17:57;;;;;;;21.58;20.38;;;0.00;74.30;;;;;;5092653;28;20028;-70
2022/01/10 21:20:24;;;;;;;25.30;23.67;;;0.00;74.40;;;;;;5093852;28;20042;-67
2022/01/10 21:22:50;;;;;;;23.35;21.95;;;0.00;74.50;;;;;;5093710;28;20024;-68
2022/01/10 21:25:17;;;;;;;27.17;25.27;;;0.00;74.40;;;;;;5087447;28;20029;-68
2022/01/10 21:27:47;;;;;;;27.23;25.45;;;0.00;74.50;;;;;;5080144;28;20110;-69
2022/01/10 21:30:14;;;;;;;27.25;25.48;;;0.00;74.60;;;;;;5078676;28;20020;-68
2022/01/10 21:32:41;;;;;;;27.63;24.85;;;0.00;74.70;;;;;;5079041;28;20028;-67
2022/01/10 21:35:08;;;;;;;28.35;26.30;;;0.10;75.40;;;;;;5079984;28;20035;-67
2022/01/10 21:37:35;;;;;;;29.00;26.90;;;0.10;74.80;;;;;;5079830;28;20028;-69
2022/01/10 21:40:02;;;;;;;27.73;25.58;;;0.10;74.40;;;;;;5081827;28;20028;-69
2022/01/10 21:42:28;;;;;;;44.50;38.45;;;-0.10;74.00;;;;;;5078750;28;20471;-65
2022/01/10 21:44:54;;;;;;;27.45;25.63;;;-0.10;74.20;;;;;;5078354;28;20027;-67
2022/01/10 21:47:19;;;;;;;27.88;25.90;;;-0.30;74.20;;;;;;5079045;28;20023;-67
2022/01/10 21:49:45;;;;;;;28.80;26.83;;;-0.30;74.60;;;;;;5080304;28;20055;-70
2022/01/10 21:52:11;;;;;;;26.20;24.17;;;-0.30;74.60;;;;;;5078203;28;20028;-65
2022/01/10 21:54:38;;;;;;;30.58;27.95;;;-0.30;74.70;;;;;;5079180;28;20036;-66
2022/01/10 21:57:04;;;;;;;26.10;24.75;;;-0.30;74.90;;;;;;5085489;28;20467;-66
2022/01/10 21:59:30;;;;;;;25.25;23.35;;;-0.30;74.60;;;;;;5086045;28;20031;-66
2022/01/10 22:01:56;;;;;;;27.20;24.88;;;-0.40;74.20;;;;;;5086305;28;20024;-66
2022/01/10 22:04:21;;;;;;;27.00;25.17;;;-0.50;74.50;;;;;;5082061;28;20030;-66
2022/01/10 22:06:47;;;;;;;24.83;23.27;;;-0.60;74.00;;;;;;5084573;28;20035;-66
2022/01/10 22:09:13;;;;;;;21.92;20.42;;;-0.70;74.20;;;;;;5089488;28;20024;-66
2022/01/10 22:11:39;;;;;;;25.35;23.77;;;-0.80;74.30;;;;;;5094719;28;20024;-66
2022/01/10 22:14:04;;;;;;;27.75;26.00;;;-0.80;74.70;;;;;;5095830;28;20060;-66
2022/01/10 22:16:30;;;;;;;23.48;21.48;;;-0.70;74.80;;;;;;5095929;28;20062;-67
2022/01/10 22:18:56;;;;;;;33.92;30.90;;;-0.80;74.40;;;;;;5095767;28;20394;-65
2022/01/10 22:21:23;;;;;;;29.38;26.67;;;-0.80;74.60;;;;;;5095641;28;20077;-66
2022/01/10 22:23:50;;;;;;;27.30;25.45;;;-0.80;74.30;;;;;;5095379;28;20036;-66